sensor_id;sensor_type;location;lat;lon;timestamp;P1;durP1;ratioP1;P2;durP2;ratioP2
16854;SDS011;8543;54.522;18.550;2023-08-12T00:00:03;6.60;;;2.40;;
16854;SDS011;8543;54.522;18.550;2023-08-12T00:02:39;6.20;;;2.30;;
16854;SDS011;8543;54.522;18.550;2023-08-12T00:05:05;5.60;;;2.50;;
16854;SDS011;8543;54.522;18.550;2023-08-12T00:07:32;6.70;;;2.50;;
16854;SDS011;8543;54.522;18.550;2023-08-12T00:10:01;5.70;;;2.70;;
16854;SDS011;8543;54.522;18.550;2023-08-12T00:12:29;4.40;;;2.50;;
16854;SDS011;8543;54.522;18.550;2023-08-12T00:14:57;7.80;;;2.60;;
16854;SDS011;8543;54.522;18.550;2023-08-12T00:17:23;6.20;;;2.50;;
16854;SDS011;8543;54.522;18.550;2023-08-12T00:19:48;5.50;;;2.70;;
16854;SDS011;8543;54.522;18.550;2023-08-12T00:22:14;7.40;;;2.60;;
16854;SDS011;8543;54.522;18.550;2023-08-12T00:24:39;7.30;;;2.50;;
16854;SDS011;8543;54.522;18.550;2023-08-12T00:27:05;7.20;;;2.60;;
16854;SDS011;8543;54.522;18.550;2023-08-12T00:29:31;7.30;;;2.50;;
16854;SDS011;8543;54.522;18.550;2023-08-12T00:31:57;7.00;;;2.80;;
16854;SDS011;8543;54.522;18.550;2023-08-12T00:34:22;5.70;;;2.50;;
16854;SDS011;8543;54.522;18.550;2023-08-12T01:00:15;7.90;;;2.80;;
16854;SDS011;8543;54.522;18.550;2023-08-12T01:02:44;6.00;;;2.60;;
16854;SDS011;8543;54.522;18.550;2023-08-12T01:05:13;5.60;;;2.60;;
16854;SDS011;8543;54.522;18.550;2023-08-12T01:07:39;4.40;;;2.60;;
16854;SDS011;8543;54.522;18.550;2023-08-12T01:10:04;5.00;;;2.70;;
16854;SDS011;8543;54.522;18.550;2023-08-12T01:12:35;7.40;;;2.90;;
16854;SDS011;8543;54.522;18.550;2023-08-12T01:15:10;7.70;;;2.90;;
16854;SDS011;8543;54.522;18.550;2023-08-12T01:17:42;7.20;;;2.90;;
16854;SDS011;8543;54.522;18.550;2023-08-12T01:20:09;5.20;;;2.80;;
16854;SDS011;8543;54.522;18.550;2023-08-12T01:22:40;7.20;;;2.70;;
16854;SDS011;8543;54.522;18.550;2023-08-12T01:25:06;7.30;;;2.70;;
16854;SDS011;8543;54.522;18.550;2023-08-12T01:27:34;6.10;;;2.80;;
16854;SDS011;8543;54.522;18.550;2023-08-12T01:30:00;8.10;;;2.80;;
16854;SDS011;8543;54.522;18.550;2023-08-12T01:32:30;4.50;;;2.70;;
16854;SDS011;8543;54.522;18.550;2023-08-12T01:35:05;6.80;;;2.70;;
16854;SDS011;8543;54.522;18.550;2023-08-12T01:37:35;6.10;;;2.70;;
16854;SDS011;8543;54.522;18.550;2023-08-12T01:40:02;6.20;;;2.50;;
16854;SDS011;8543;54.522;18.550;2023-08-12T01:42:29;8.90;;;3.20;;
16854;SDS011;8543;54.522;18.550;2023-08-12T01:44:55;8.10;;;2.90;;
16854;SDS011;8543;54.522;18.550;2023-08-12T01:47:21;8.80;;;2.80;;
16854;SDS011;8543;54.522;18.550;2023-08-12T01:49:46;7.70;;;2.80;;
16854;SDS011;8543;54.522;18.550;2023-08-12T01:52:12;6.30;;;2.70;;
16854;SDS011;8543;54.522;18.550;2023-08-12T01:54:37;7.20;;;2.80;;
16854;SDS011;8543;54.522;18.550;2023-08-12T01:57:03;6.30;;;2.70;;
16854;SDS011;8543;54.522;18.550;2023-08-12T01:59:34;7.00;;;2.80;;
16854;SDS011;8543;54.522;18.550;2023-08-12T02:02:00;6.40;;;2.50;;
16854;SDS011;8543;54.522;18.550;2023-08-12T02:04:28;7.80;;;2.50;;
16854;SDS011;8543;54.522;18.550;2023-08-12T02:06:54;5.10;;;2.50;;
16854;SDS011;8543;54.522;18.550;2023-08-12T02:09:20;6.10;;;2.70;;
16854;SDS011;8543;54.522;18.550;2023-08-12T02:11:46;5.50;;;2.60;;
16854;SDS011;8543;54.522;18.550;2023-08-12T02:14:11;5.50;;;2.80;;
16854;SDS011;8543;54.522;18.550;2023-08-12T02:16:37;5.30;;;2.80;;
16854;SDS011;8543;54.522;18.550;2023-08-12T02:19:02;4.90;;;2.70;;
16854;SDS011;8543;54.522;18.550;2023-08-12T02:21:28;5.10;;;2.70;;
16854;SDS011;8543;54.522;18.550;2023-08-12T02:23:54;5.60;;;2.70;;
16854;SDS011;8543;54.522;18.550;2023-08-12T02:26:19;4.50;;;2.50;;
16854;SDS011;8543;54.522;18.550;2023-08-12T02:28:45;8.60;;;2.60;;
16854;SDS011;8543;54.522;18.550;2023-08-12T02:31:10;4.60;;;2.40;;
16854;SDS011;8543;54.522;18.550;2023-08-12T02:33:36;7.40;;;2.70;;
16854;SDS011;8543;54.522;18.550;2023-08-12T02:36:01;9.90;;;2.60;;
16854;SDS011;8543;54.522;18.550;2023-08-12T02:38:27;6.60;;;2.60;;
16854;SDS011;8543;54.522;18.550;2023-08-12T02:40:53;5.70;;;2.90;;
16854;SDS011;8543;54.522;18.550;2023-08-12T02:43:18;7.00;;;2.50;;
16854;SDS011;8543;54.522;18.550;2023-08-12T02:45:44;7.40;;;2.60;;
16854;SDS011;8543;54.522;18.550;2023-08-12T02:48:10;7.60;;;2.70;;
16854;SDS011;8543;54.522;18.550;2023-08-12T02:50:36;6.90;;;2.60;;
16854;SDS011;8543;54.522;18.550;2023-08-12T02:53:02;5.70;;;2.70;;
16854;SDS011;8543;54.522;18.550;2023-08-12T02:55:28;6.20;;;2.60;;
16854;SDS011;8543;54.522;18.550;2023-08-12T02:57:54;6.10;;;2.40;;
16854;SDS011;8543;54.522;18.550;2023-08-12T03:00:20;7.00;;;2.80;;
16854;SDS011;8543;54.522;18.550;2023-08-12T03:02:47;7.00;;;2.80;;
16854;SDS011;8543;54.522;18.550;2023-08-12T03:05:12;6.40;;;2.30;;
16854;SDS011;8543;54.522;18.550;2023-08-12T03:07:38;5.10;;;2.30;;
16854;SDS011;8543;54.522;18.550;2023-08-12T03:10:03;6.60;;;2.30;;
16854;SDS011;8543;54.522;18.550;2023-08-12T03:12:29;5.00;;;2.40;;
16854;SDS011;8543;54.522;18.550;2023-08-12T03:14:54;4.40;;;2.30;;
16854;SDS011;8543;54.522;18.550;2023-08-12T03:17:20;6.30;;;2.40;;
16854;SDS011;8543;54.522;18.550;2023-08-12T03:19:45;5.80;;;2.50;;
16854;SDS011;8543;54.522;18.550;2023-08-12T03:22:11;5.80;;;2.30;;
16854;SDS011;8543;54.522;18.550;2023-08-12T03:24:36;5.70;;;2.60;;
16854;SDS011;8543;54.522;18.550;2023-08-12T03:27:01;3.80;;;2.40;;
16854;SDS011;8543;54.522;18.550;2023-08-12T03:29:27;5.60;;;2.60;;
16854;SDS011;8543;54.522;18.550;2023-08-12T03:31:52;5.70;;;2.60;;
16854;SDS011;8543;54.522;18.550;2023-08-12T03:34:18;4.90;;;2.40;;
16854;SDS011;8543;54.522;18.550;2023-08-12T03:36:43;5.70;;;2.30;;
16854;SDS011;8543;54.522;18.550;2023-08-12T03:39:11;6.30;;;2.70;;
16854;SDS011;8543;54.522;18.550;2023-08-12T03:41:36;5.40;;;2.50;;
16854;SDS011;8543;54.522;18.550;2023-08-12T03:44:01;6.50;;;2.50;;
16854;SDS011;8543;54.522;18.550;2023-08-12T03:46:27;6.40;;;2.30;;
16854;SDS011;8543;54.522;18.550;2023-08-12T03:48:52;3.80;;;2.20;;
16854;SDS011;8543;54.522;18.550;2023-08-12T03:51:18;5.20;;;2.70;;
16854;SDS011;8543;54.522;18.550;2023-08-12T03:53:43;5.50;;;2.20;;
16854;SDS011;8543;54.522;18.550;2023-08-12T03:56:09;5.90;;;2.30;;
16854;SDS011;8543;54.522;18.550;2023-08-12T03:58:34;4.10;;;2.20;;
16854;SDS011;8543;54.522;18.550;2023-08-12T04:01:00;4.70;;;2.20;;
16854;SDS011;8543;54.522;18.550;2023-08-12T04:03:26;4.00;;;2.30;;
16854;SDS011;8543;54.522;18.550;2023-08-12T04:05:51;5.90;;;2.50;;
16854;SDS011;8543;54.522;18.550;2023-08-12T04:08:21;6.80;;;2.70;;
16854;SDS011;8543;54.522;18.550;2023-08-12T04:10:48;6.70;;;2.70;;
16854;SDS011;8543;54.522;18.550;2023-08-12T04:13:14;7.50;;;2.50;;
16854;SDS011;8543;54.522;18.550;2023-08-12T04:15:40;4.30;;;2.30;;
16854;SDS011;8543;54.522;18.550;2023-08-12T04:18:06;5.40;;;2.50;;
16854;SDS011;8543;54.522;18.550;2023-08-12T04:20:33;4.70;;;2.70;;
16854;SDS011;8543;54.522;18.550;2023-08-12T04:22:59;7.20;;;2.60;;
16854;SDS011;8543;54.522;18.550;2023-08-12T04:25:25;6.20;;;2.60;;
16854;SDS011;8543;54.522;18.550;2023-08-12T04:27:51;5.80;;;2.60;;
16854;SDS011;8543;54.522;18.550;2023-08-12T04:30:18;4.90;;;2.20;;
16854;SDS011;8543;54.522;18.550;2023-08-12T04:32:43;6.00;;;2.60;;
16854;SDS011;8543;54.522;18.550;2023-08-12T04:35:09;5.20;;;2.30;;
16854;SDS011;8543;54.522;18.550;2023-08-12T04:37:35;5.10;;;2.30;;
16854;SDS011;8543;54.522;18.550;2023-08-12T04:40:01;5.00;;;2.30;;
16854;SDS011;8543;54.522;18.550;2023-08-12T04:42:31;6.50;;;2.90;;
16854;SDS011;8543;54.522;18.550;2023-08-12T04:44:56;5.10;;;2.40;;
16854;SDS011;8543;54.522;18.550;2023-08-12T04:47:22;6.70;;;2.40;;
16854;SDS011;8543;54.522;18.550;2023-08-12T04:49:48;4.50;;;2.50;;
16854;SDS011;8543;54.522;18.550;2023-08-12T04:52:14;5.40;;;2.50;;
16854;SDS011;8543;54.522;18.550;2023-08-12T04:54:39;4.20;;;2.20;;
16854;SDS011;8543;54.522;18.550;2023-08-12T04:57:05;6.90;;;2.90;;
16854;SDS011;8543;54.522;18.550;2023-08-12T04:59:31;5.00;;;2.10;;
16854;SDS011;8543;54.522;18.550;2023-08-12T05:01:56;6.20;;;2.30;;
16854;SDS011;8543;54.522;18.550;2023-08-12T05:04:22;3.90;;;2.20;;
16854;SDS011;8543;54.522;18.550;2023-08-12T05:06:47;4.80;;;2.40;;
16854;SDS011;8543;54.522;18.550;2023-08-12T05:09:13;4.30;;;2.30;;
16854;SDS011;8543;54.522;18.550;2023-08-12T05:11:44;4.80;;;2.30;;
16854;SDS011;8543;54.522;18.550;2023-08-12T05:14:09;5.00;;;2.50;;
16854;SDS011;8543;54.522;18.550;2023-08-12T05:16:35;4.80;;;2.40;;
16854;SDS011;8543;54.522;18.550;2023-08-12T05:19:00;5.40;;;2.40;;
16854;SDS011;8543;54.522;18.550;2023-08-12T05:21:26;5.20;;;2.40;;
16854;SDS011;8543;54.522;18.550;2023-08-12T05:23:51;7.00;;;2.50;;
16854;SDS011;8543;54.522;18.550;2023-08-12T05:26:18;6.20;;;2.60;;
16854;SDS011;8543;54.522;18.550;2023-08-12T05:28:45;4.60;;;2.50;;
16854;SDS011;8543;54.522;18.550;2023-08-12T05:31:10;6.60;;;2.50;;
16854;SDS011;8543;54.522;18.550;2023-08-12T05:33:36;5.70;;;2.50;;
16854;SDS011;8543;54.522;18.550;2023-08-12T05:36:02;5.60;;;2.40;;
16854;SDS011;8543;54.522;18.550;2023-08-12T05:38:28;5.70;;;2.50;;
16854;SDS011;8543;54.522;18.550;2023-08-12T05:40:53;3.50;;;2.20;;
16854;SDS011;8543;54.522;18.550;2023-08-12T05:43:19;5.00;;;2.50;;
16854;SDS011;8543;54.522;18.550;2023-08-12T05:45:44;4.70;;;2.40;;
16854;SDS011;8543;54.522;18.550;2023-08-12T05:48:10;6.00;;;2.50;;
16854;SDS011;8543;54.522;18.550;2023-08-12T05:50:37;6.30;;;2.70;;
16854;SDS011;8543;54.522;18.550;2023-08-12T05:53:02;4.90;;;2.60;;
16854;SDS011;8543;54.522;18.550;2023-08-12T05:55:28;4.90;;;2.60;;
16854;SDS011;8543;54.522;18.550;2023-08-12T05:57:53;3.50;;;2.20;;
16854;SDS011;8543;54.522;18.550;2023-08-12T06:00:19;3.90;;;2.30;;
16854;SDS011;8543;54.522;18.550;2023-08-12T06:02:45;5.50;;;2.50;;
16854;SDS011;8543;54.522;18.550;2023-08-12T06:05:10;5.10;;;2.40;;
16854;SDS011;8543;54.522;18.550;2023-08-12T06:07:36;6.60;;;2.80;;
16854;SDS011;8543;54.522;18.550;2023-08-12T06:10:02;6.70;;;2.60;;
16854;SDS011;8543;54.522;18.550;2023-08-12T06:12:30;6.70;;;2.70;;
16854;SDS011;8543;54.522;18.550;2023-08-12T06:14:56;4.90;;;2.70;;
16854;SDS011;8543;54.522;18.550;2023-08-12T06:17:21;4.60;;;2.40;;
16854;SDS011;8543;54.522;18.550;2023-08-12T06:19:48;6.40;;;2.60;;
16854;SDS011;8543;54.522;18.550;2023-08-12T06:22:14;4.80;;;2.50;;
16854;SDS011;8543;54.522;18.550;2023-08-12T06:24:46;4.60;;;2.70;;
16854;SDS011;8543;54.522;18.550;2023-08-12T06:27:12;5.40;;;2.60;;
16854;SDS011;8543;54.522;18.550;2023-08-12T06:29:40;5.30;;;2.60;;
16854;SDS011;8543;54.522;18.550;2023-08-12T06:32:06;6.00;;;2.60;;
16854;SDS011;8543;54.522;18.550;2023-08-12T06:34:32;4.70;;;2.40;;
16854;SDS011;8543;54.522;18.550;2023-08-12T06:36:58;3.90;;;2.50;;
16854;SDS011;8543;54.522;18.550;2023-08-12T06:39:24;5.00;;;2.80;;
16854;SDS011;8543;54.522;18.550;2023-08-12T06:41:50;5.80;;;2.90;;
16854;SDS011;8543;54.522;18.550;2023-08-12T06:44:20;4.60;;;2.80;;
16854;SDS011;8543;54.522;18.550;2023-08-12T06:46:46;5.10;;;2.80;;
16854;SDS011;8543;54.522;18.550;2023-08-12T06:49:12;6.20;;;3.00;;
16854;SDS011;8543;54.522;18.550;2023-08-12T06:51:38;5.60;;;2.80;;
16854;SDS011;8543;54.522;18.550;2023-08-12T06:54:05;4.90;;;2.70;;
16854;SDS011;8543;54.522;18.550;2023-08-12T06:56:31;5.90;;;2.90;;
16854;SDS011;8543;54.522;18.550;2023-08-12T06:58:56;5.40;;;3.00;;
16854;SDS011;8543;54.522;18.550;2023-08-12T07:01:24;8.70;;;2.90;;
16854;SDS011;8543;54.522;18.550;2023-08-12T07:03:50;4.60;;;2.70;;
16854;SDS011;8543;54.522;18.550;2023-08-12T07:06:17;5.80;;;2.70;;
16854;SDS011;8543;54.522;18.550;2023-08-12T07:08:44;5.70;;;3.10;;
16854;SDS011;8543;54.522;18.550;2023-08-12T07:11:09;6.30;;;2.90;;
16854;SDS011;8543;54.522;18.550;2023-08-12T07:13:35;8.40;;;3.40;;
16854;SDS011;8543;54.522;18.550;2023-08-12T07:16:01;4.50;;;2.70;;
16854;SDS011;8543;54.522;18.550;2023-08-12T07:18:26;4.80;;;2.60;;
16854;SDS011;8543;54.522;18.550;2023-08-12T07:21:02;5.50;;;2.80;;
16854;SDS011;8543;54.522;18.550;2023-08-12T07:23:28;4.60;;;2.70;;
16854;SDS011;8543;54.522;18.550;2023-08-12T07:25:54;5.90;;;2.80;;
16854;SDS011;8543;54.522;18.550;2023-08-12T07:28:22;4.50;;;2.40;;
16854;SDS011;8543;54.522;18.550;2023-08-12T07:30:51;5.90;;;3.00;;
16854;SDS011;8543;54.522;18.550;2023-08-12T07:33:19;6.00;;;2.90;;
16854;SDS011;8543;54.522;18.550;2023-08-12T07:35:45;5.50;;;2.60;;
16854;SDS011;8543;54.522;18.550;2023-08-12T07:38:10;4.70;;;2.90;;
16854;SDS011;8543;54.522;18.550;2023-08-12T07:40:38;5.80;;;3.10;;
16854;SDS011;8543;54.522;18.550;2023-08-12T07:43:04;4.80;;;2.90;;
16854;SDS011;8543;54.522;18.550;2023-08-12T07:45:30;4.60;;;2.80;;
16854;SDS011;8543;54.522;18.550;2023-08-12T07:48:02;6.10;;;2.80;;
16854;SDS011;8543;54.522;18.550;2023-08-12T07:50:29;5.90;;;2.80;;
16854;SDS011;8543;54.522;18.550;2023-08-12T07:52:54;5.50;;;2.90;;
16854;SDS011;8543;54.522;18.550;2023-08-12T07:55:22;7.80;;;3.00;;
16854;SDS011;8543;54.522;18.550;2023-08-12T07:57:47;5.40;;;2.90;;
16854;SDS011;8543;54.522;18.550;2023-08-12T08:00:13;5.30;;;2.60;;
16854;SDS011;8543;54.522;18.550;2023-08-12T08:02:39;4.90;;;2.60;;
16854;SDS011;8543;54.522;18.550;2023-08-12T08:05:05;6.10;;;3.00;;
16854;SDS011;8543;54.522;18.550;2023-08-12T08:07:31;5.80;;;2.90;;
16854;SDS011;8543;54.522;18.550;2023-08-12T08:09:57;5.80;;;2.90;;
16854;SDS011;8543;54.522;18.550;2023-08-12T08:12:22;6.00;;;3.20;;
16854;SDS011;8543;54.522;18.550;2023-08-12T08:14:48;5.20;;;3.20;;
16854;SDS011;8543;54.522;18.550;2023-08-12T08:17:14;4.70;;;2.80;;
16854;SDS011;8543;54.522;18.550;2023-08-12T08:19:39;6.50;;;2.90;;
16854;SDS011;8543;54.522;18.550;2023-08-12T08:22:05;4.70;;;3.00;;
16854;SDS011;8543;54.522;18.550;2023-08-12T08:24:30;6.50;;;3.10;;
16854;SDS011;8543;54.522;18.550;2023-08-12T08:26:56;7.20;;;2.80;;
16854;SDS011;8543;54.522;18.550;2023-08-12T08:29:21;5.50;;;3.10;;
16854;SDS011;8543;54.522;18.550;2023-08-12T08:31:48;5.20;;;2.90;;
16854;SDS011;8543;54.522;18.550;2023-08-12T08:34:14;6.40;;;3.10;;
16854;SDS011;8543;54.522;18.550;2023-08-12T08:36:40;7.00;;;3.20;;
16854;SDS011;8543;54.522;18.550;2023-08-12T08:39:05;5.30;;;2.80;;
16854;SDS011;8543;54.522;18.550;2023-08-12T08:41:31;6.00;;;2.60;;
16854;SDS011;8543;54.522;18.550;2023-08-12T08:44:02;6.20;;;3.00;;
16854;SDS011;8543;54.522;18.550;2023-08-12T08:46:28;7.20;;;2.60;;
16854;SDS011;8543;54.522;18.550;2023-08-12T08:48:54;5.30;;;2.50;;
16854;SDS011;8543;54.522;18.550;2023-08-12T08:51:20;4.80;;;2.80;;
16854;SDS011;8543;54.522;18.550;2023-08-12T08:53:47;4.50;;;2.60;;
16854;SDS011;8543;54.522;18.550;2023-08-12T08:56:13;4.40;;;2.80;;
16854;SDS011;8543;54.522;18.550;2023-08-12T08:58:39;4.90;;;2.40;;
16854;SDS011;8543;54.522;18.550;2023-08-12T09:01:07;5.80;;;2.90;;
16854;SDS011;8543;54.522;18.550;2023-08-12T09:03:35;4.10;;;2.80;;
16854;SDS011;8543;54.522;18.550;2023-08-12T09:06:03;4.20;;;2.60;;
16854;SDS011;8543;54.522;18.550;2023-08-12T09:08:31;5.90;;;2.80;;
16854;SDS011;8543;54.522;18.550;2023-08-12T09:10:57;5.10;;;2.90;;
16854;SDS011;8543;54.522;18.550;2023-08-12T09:13:25;7.50;;;3.00;;
16854;SDS011;8543;54.522;18.550;2023-08-12T09:15:51;4.70;;;2.90;;
16854;SDS011;8543;54.522;18.550;2023-08-12T09:18:17;4.80;;;2.70;;
16854;SDS011;8543;54.522;18.550;2023-08-12T09:20:42;5.10;;;2.90;;
16854;SDS011;8543;54.522;18.550;2023-08-12T09:23:08;8.90;;;3.10;;
16854;SDS011;8543;54.522;18.550;2023-08-12T09:25:43;5.30;;;2.80;;
16854;SDS011;8543;54.522;18.550;2023-08-12T09:28:09;5.00;;;2.90;;
16854;SDS011;8543;54.522;18.550;2023-08-12T09:30:36;4.70;;;2.80;;
16854;SDS011;8543;54.522;18.550;2023-08-12T09:33:03;4.60;;;2.70;;
16854;SDS011;8543;54.522;18.550;2023-08-12T09:35:36;5.90;;;3.10;;
16854;SDS011;8543;54.522;18.550;2023-08-12T09:38:12;4.90;;;2.70;;
16854;SDS011;8543;54.522;18.550;2023-08-12T09:40:38;6.30;;;3.20;;
16854;SDS011;8543;54.522;18.550;2023-08-12T09:43:05;4.60;;;2.80;;
16854;SDS011;8543;54.522;18.550;2023-08-12T09:45:31;4.90;;;2.80;;
16854;SDS011;8543;54.522;18.550;2023-08-12T09:47:57;6.70;;;2.80;;
16854;SDS011;8543;54.522;18.550;2023-08-12T09:50:27;5.80;;;3.20;;
16854;SDS011;8543;54.522;18.550;2023-08-12T09:52:54;4.70;;;2.80;;
16854;SDS011;8543;54.522;18.550;2023-08-12T09:55:22;5.70;;;3.00;;
16854;SDS011;8543;54.522;18.550;2023-08-12T09:57:53;4.90;;;2.80;;
16854;SDS011;8543;54.522;18.550;2023-08-12T10:00:22;4.80;;;2.60;;
16854;SDS011;8543;54.522;18.550;2023-08-12T10:02:49;4.10;;;2.40;;
16854;SDS011;8543;54.522;18.550;2023-08-12T10:05:27;4.60;;;2.80;;
16854;SDS011;8543;54.522;18.550;2023-08-12T10:07:53;5.20;;;2.90;;
16854;SDS011;8543;54.522;18.550;2023-08-12T10:10:20;5.00;;;2.50;;
16854;SDS011;8543;54.522;18.550;2023-08-12T10:12:47;4.60;;;2.80;;
16854;SDS011;8543;54.522;18.550;2023-08-12T10:15:13;6.50;;;2.90;;
16854;SDS011;8543;54.522;18.550;2023-08-12T10:17:40;5.00;;;2.60;;
16854;SDS011;8543;54.522;18.550;2023-08-12T10:20:06;6.10;;;3.10;;
16854;SDS011;8543;54.522;18.550;2023-08-12T10:22:33;4.70;;;2.70;;
16854;SDS011;8543;54.522;18.550;2023-08-12T10:25:01;4.10;;;2.90;;
16854;SDS011;8543;54.522;18.550;2023-08-12T10:27:28;4.30;;;2.80;;
16854;SDS011;8543;54.522;18.550;2023-08-12T10:29:57;5.80;;;2.80;;
16854;SDS011;8543;54.522;18.550;2023-08-12T10:32:24;4.10;;;2.50;;
16854;SDS011;8543;54.522;18.550;2023-08-12T10:34:54;5.30;;;2.70;;
16854;SDS011;8543;54.522;18.550;2023-08-12T10:37:22;4.80;;;2.90;;
16854;SDS011;8543;54.522;18.550;2023-08-12T10:39:49;6.00;;;2.80;;
16854;SDS011;8543;54.522;18.550;2023-08-12T10:42:31;5.10;;;3.10;;
16854;SDS011;8543;54.522;18.550;2023-08-12T10:45:07;6.90;;;2.90;;
16854;SDS011;8543;54.522;18.550;2023-08-12T10:47:33;5.60;;;3.10;;
16854;SDS011;8543;54.522;18.550;2023-08-12T10:50:20;4.90;;;2.80;;
16854;SDS011;8543;54.522;18.550;2023-08-12T10:52:52;5.10;;;2.70;;
16854;SDS011;8543;54.522;18.550;2023-08-12T10:55:19;5.30;;;2.70;;
16854;SDS011;8543;54.522;18.550;2023-08-12T10:57:49;6.10;;;3.10;;
16854;SDS011;8543;54.522;18.550;2023-08-12T11:00:16;6.70;;;3.30;;
16854;SDS011;8543;54.522;18.550;2023-08-12T11:02:44;4.80;;;2.90;;
16854;SDS011;8543;54.522;18.550;2023-08-12T11:05:10;5.70;;;3.00;;
16854;SDS011;8543;54.522;18.550;2023-08-12T11:07:40;6.10;;;3.10;;
16854;SDS011;8543;54.522;18.550;2023-08-12T11:18:08;5.70;;;3.50;;
16854;SDS011;8543;54.522;18.550;2023-08-12T11:20:35;5.70;;;3.20;;
16854;SDS011;8543;54.522;18.550;2023-08-12T11:23:03;6.90;;;3.40;;
16854;SDS011;8543;54.522;18.550;2023-08-12T11:25:30;4.80;;;3.40;;
16854;SDS011;8543;54.522;18.550;2023-08-12T11:27:56;7.70;;;3.50;;
16854;SDS011;8543;54.522;18.550;2023-08-12T11:30:22;5.50;;;3.60;;
16854;SDS011;8543;54.522;18.550;2023-08-12T11:32:48;6.80;;;3.50;;
16854;SDS011;8543;54.522;18.550;2023-08-12T11:35:15;5.30;;;3.30;;
16854;SDS011;8543;54.522;18.550;2023-08-12T11:37:42;7.20;;;3.60;;
16854;SDS011;8543;54.522;18.550;2023-08-12T11:40:10;5.30;;;3.40;;
16854;SDS011;8543;54.522;18.550;2023-08-12T11:42:36;8.80;;;4.10;;
16854;SDS011;8543;54.522;18.550;2023-08-12T11:45:03;7.00;;;3.60;;
16854;SDS011;8543;54.522;18.550;2023-08-12T11:47:30;7.00;;;3.30;;
16854;SDS011;8543;54.522;18.550;2023-08-12T11:49:55;6.60;;;3.00;;
16854;SDS011;8543;54.522;18.550;2023-08-12T11:52:21;6.90;;;3.50;;
16854;SDS011;8543;54.522;18.550;2023-08-12T11:54:48;6.90;;;3.50;;
16854;SDS011;8543;54.522;18.550;2023-08-12T11:57:15;5.10;;;3.40;;
16854;SDS011;8543;54.522;18.550;2023-08-12T11:59:42;6.60;;;3.90;;
16854;SDS011;8543;54.522;18.550;2023-08-12T12:02:07;6.00;;;3.10;;
16854;SDS011;8543;54.522;18.550;2023-08-12T12:04:33;6.70;;;3.40;;
16854;SDS011;8543;54.522;18.550;2023-08-12T12:06:59;6.20;;;3.60;;
16854;SDS011;8543;54.522;18.550;2023-08-12T12:09:31;6.60;;;3.40;;
16854;SDS011;8543;54.522;18.550;2023-08-12T12:11:57;6.90;;;3.20;;
16854;SDS011;8543;54.522;18.550;2023-08-12T12:14:24;4.90;;;3.10;;
16854;SDS011;8543;54.522;18.550;2023-08-12T12:16:49;5.90;;;3.50;;
16854;SDS011;8543;54.522;18.550;2023-08-12T12:19:17;4.20;;;2.90;;
16854;SDS011;8543;54.522;18.550;2023-08-12T12:21:50;5.80;;;3.40;;
16854;SDS011;8543;54.522;18.550;2023-08-12T12:24:17;5.50;;;3.20;;
16854;SDS011;8543;54.522;18.550;2023-08-12T12:26:46;4.90;;;2.90;;
16854;SDS011;8543;54.522;18.550;2023-08-12T12:29:12;6.20;;;3.30;;
16854;SDS011;8543;54.522;18.550;2023-08-12T12:31:39;6.80;;;3.10;;
16854;SDS011;8543;54.522;18.550;2023-08-12T12:34:06;5.90;;;3.00;;
16854;SDS011;8543;54.522;18.550;2023-08-12T12:36:36;6.10;;;3.10;;
16854;SDS011;8543;54.522;18.550;2023-08-12T12:39:03;5.40;;;2.90;;
16854;SDS011;8543;54.522;18.550;2023-08-12T12:41:30;4.80;;;3.20;;
16854;SDS011;8543;54.522;18.550;2023-08-12T12:43:55;5.90;;;3.30;;
16854;SDS011;8543;54.522;18.550;2023-08-12T12:46:21;7.50;;;3.30;;
16854;SDS011;8543;54.522;18.550;2023-08-12T12:48:49;5.70;;;3.20;;
16854;SDS011;8543;54.522;18.550;2023-08-12T12:51:15;4.90;;;3.20;;
16854;SDS011;8543;54.522;18.550;2023-08-12T12:53:40;6.10;;;3.20;;
16854;SDS011;8543;54.522;18.550;2023-08-12T12:56:06;3.80;;;2.60;;
16854;SDS011;8543;54.522;18.550;2023-08-12T12:58:33;6.00;;;3.00;;
16854;SDS011;8543;54.522;18.550;2023-08-12T13:00:59;4.80;;;3.00;;
16854;SDS011;8543;54.522;18.550;2023-08-12T13:03:25;6.00;;;2.90;;
16854;SDS011;8543;54.522;18.550;2023-08-12T13:05:51;5.00;;;2.70;;
16854;SDS011;8543;54.522;18.550;2023-08-12T13:08:17;6.40;;;2.80;;
16854;SDS011;8543;54.522;18.550;2023-08-12T13:10:42;5.40;;;3.00;;
16854;SDS011;8543;54.522;18.550;2023-08-12T13:13:08;5.10;;;3.00;;
16854;SDS011;8543;54.522;18.550;2023-08-12T13:15:34;5.00;;;2.80;;
16854;SDS011;8543;54.522;18.550;2023-08-12T13:18:00;5.40;;;2.70;;
16854;SDS011;8543;54.522;18.550;2023-08-12T13:20:25;5.00;;;2.90;;
16854;SDS011;8543;54.522;18.550;2023-08-12T13:22:50;5.30;;;3.00;;
16854;SDS011;8543;54.522;18.550;2023-08-12T13:25:16;5.60;;;3.00;;
16854;SDS011;8543;54.522;18.550;2023-08-12T13:27:42;8.40;;;3.10;;
16854;SDS011;8543;54.522;18.550;2023-08-12T13:30:08;4.60;;;2.80;;
16854;SDS011;8543;54.522;18.550;2023-08-12T13:32:37;6.10;;;2.90;;
16854;SDS011;8543;54.522;18.550;2023-08-12T13:35:03;6.50;;;2.50;;
16854;SDS011;8543;54.522;18.550;2023-08-12T13:37:30;6.20;;;2.60;;
16854;SDS011;8543;54.522;18.550;2023-08-12T13:39:56;6.30;;;2.80;;
16854;SDS011;8543;54.522;18.550;2023-08-12T13:42:22;4.90;;;2.40;;
16854;SDS011;8543;54.522;18.550;2023-08-12T13:44:47;5.40;;;2.50;;
16854;SDS011;8543;54.522;18.550;2023-08-12T13:47:13;5.40;;;2.60;;
16854;SDS011;8543;54.522;18.550;2023-08-12T13:49:39;6.10;;;3.20;;
16854;SDS011;8543;54.522;18.550;2023-08-12T13:52:04;4.50;;;2.90;;
16854;SDS011;8543;54.522;18.550;2023-08-12T13:54:30;8.00;;;3.50;;
16854;SDS011;8543;54.522;18.550;2023-08-12T13:56:55;4.90;;;2.90;;
16854;SDS011;8543;54.522;18.550;2023-08-12T13:59:20;5.60;;;2.80;;
16854;SDS011;8543;54.522;18.550;2023-08-12T14:01:46;5.60;;;2.70;;
16854;SDS011;8543;54.522;18.550;2023-08-12T14:04:11;5.20;;;2.60;;
16854;SDS011;8543;54.522;18.550;2023-08-12T14:06:37;5.30;;;2.60;;
16854;SDS011;8543;54.522;18.550;2023-08-12T14:09:02;4.80;;;2.60;;
16854;SDS011;8543;54.522;18.550;2023-08-12T14:11:28;4.80;;;2.50;;
16854;SDS011;8543;54.522;18.550;2023-08-12T14:13:56;5.10;;;2.40;;
16854;SDS011;8543;54.522;18.550;2023-08-12T14:16:22;7.80;;;2.60;;
16854;SDS011;8543;54.522;18.550;2023-08-12T14:18:48;5.00;;;2.70;;
16854;SDS011;8543;54.522;18.550;2023-08-12T14:21:13;4.80;;;2.60;;
16854;SDS011;8543;54.522;18.550;2023-08-12T14:23:39;7.60;;;2.60;;
16854;SDS011;8543;54.522;18.550;2023-08-12T14:26:04;6.30;;;2.60;;
16854;SDS011;8543;54.522;18.550;2023-08-12T14:28:30;6.20;;;2.90;;
16854;SDS011;8543;54.522;18.550;2023-08-12T14:30:55;4.90;;;2.70;;
16854;SDS011;8543;54.522;18.550;2023-08-12T14:33:21;4.50;;;2.80;;
16854;SDS011;8543;54.522;18.550;2023-08-12T14:35:49;7.80;;;2.80;;
16854;SDS011;8543;54.522;18.550;2023-08-12T14:38:18;7.60;;;2.60;;
16854;SDS011;8543;54.522;18.550;2023-08-12T14:40:47;4.30;;;2.40;;
16854;SDS011;8543;54.522;18.550;2023-08-12T14:43:13;5.50;;;2.90;;
16854;SDS011;8543;54.522;18.550;2023-08-12T14:45:39;5.80;;;2.90;;
16854;SDS011;8543;54.522;18.550;2023-08-12T14:48:04;4.20;;;2.60;;
16854;SDS011;8543;54.522;18.550;2023-08-12T14:50:30;7.00;;;2.60;;
16854;SDS011;8543;54.522;18.550;2023-08-12T14:52:56;5.00;;;2.50;;
16854;SDS011;8543;54.522;18.550;2023-08-12T14:55:21;5.50;;;2.60;;
16854;SDS011;8543;54.522;18.550;2023-08-12T14:57:47;6.00;;;2.40;;
16854;SDS011;8543;54.522;18.550;2023-08-12T15:00:12;4.70;;;2.60;;
16854;SDS011;8543;54.522;18.550;2023-08-12T15:02:39;4.40;;;3.00;;
16854;SDS011;8543;54.522;18.550;2023-08-12T15:05:04;5.70;;;2.90;;
16854;SDS011;8543;54.522;18.550;2023-08-12T15:07:31;4.30;;;2.70;;
16854;SDS011;8543;54.522;18.550;2023-08-12T15:09:58;5.60;;;2.80;;
16854;SDS011;8543;54.522;18.550;2023-08-12T15:12:24;5.30;;;2.50;;
16854;SDS011;8543;54.522;18.550;2023-08-12T15:14:50;6.20;;;2.60;;